sensor_id;sensor_type;location;lat;lon;timestamp;P1;durP1;ratioP1;P2;durP2;ratioP2
74650;SDS011;63169;46.042;14.592;2024-02-26T00:00:03;3.53;;;1.50;;
74650;SDS011;63169;46.042;14.592;2024-02-26T00:02:30;3.20;;;2.05;;
74650;SDS011;63169;46.042;14.592;2024-02-26T00:04:57;3.45;;;1.33;;
74650;SDS011;63169;46.042;14.592;2024-02-26T00:07:22;2.45;;;0.95;;
74650;SDS011;63169;46.042;14.592;2024-02-26T00:09:47;4.60;;;2.10;;
74650;SDS011;63169;46.042;14.592;2024-02-26T00:12:13;2.95;;;1.25;;
74650;SDS011;63169;46.042;14.592;2024-02-26T00:14:38;3.30;;;2.08;;
74650;SDS011;63169;46.042;14.592;2024-02-26T00:17:04;3.42;;;1.35;;
74650;SDS011;63169;46.042;14.592;2024-02-26T00:19:29;3.95;;;1.92;;
74650;SDS011;63169;46.042;14.592;2024-02-26T00:21:55;4.70;;;3.00;;
74650;SDS011;63169;46.042;14.592;2024-02-26T00:24:20;3.60;;;2.45;;
74650;SDS011;63169;46.042;14.592;2024-02-26T00:26:46;5.13;;;2.42;;
74650;SDS011;63169;46.042;14.592;2024-02-26T00:29:11;4.85;;;1.98;;
74650;SDS011;63169;46.042;14.592;2024-02-26T00:31:37;6.50;;;2.92;;
74650;SDS011;63169;46.042;14.592;2024-02-26T00:34:05;5.32;;;2.55;;
74650;SDS011;63169;46.042;14.592;2024-02-26T00:36:31;8.02;;;3.95;;
74650;SDS011;63169;46.042;14.592;2024-02-26T00:38:56;6.53;;;2.53;;
74650;SDS011;63169;46.042;14.592;2024-02-26T00:41:21;6.45;;;3.47;;
74650;SDS011;63169;46.042;14.592;2024-02-26T00:43:47;5.68;;;3.03;;
74650;SDS011;63169;46.042;14.592;2024-02-26T00:46:12;6.22;;;1.88;;
74650;SDS011;63169;46.042;14.592;2024-02-26T00:48:38;7.13;;;2.55;;
74650;SDS011;63169;46.042;14.592;2024-02-26T00:51:04;4.85;;;1.95;;
74650;SDS011;63169;46.042;14.592;2024-02-26T00:53:33;9.40;;;3.17;;
74650;SDS011;63169;46.042;14.592;2024-02-26T00:55:59;7.10;;;2.45;;
74650;SDS011;63169;46.042;14.592;2024-02-26T00:58:25;7.68;;;3.40;;
74650;SDS011;63169;46.042;14.592;2024-02-26T01:00:51;7.82;;;3.38;;
74650;SDS011;63169;46.042;14.592;2024-02-26T01:03:19;6.20;;;4.20;;
74650;SDS011;63169;46.042;14.592;2024-02-26T01:05:44;5.97;;;4.20;;
74650;SDS011;63169;46.042;14.592;2024-02-26T01:08:10;5.80;;;3.75;;
74650;SDS011;63169;46.042;14.592;2024-02-26T01:10:35;7.97;;;2.50;;
74650;SDS011;63169;46.042;14.592;2024-02-26T01:13:01;7.95;;;3.17;;
74650;SDS011;63169;46.042;14.592;2024-02-26T01:15:27;6.90;;;2.53;;
74650;SDS011;63169;46.042;14.592;2024-02-26T01:17:52;5.97;;;2.15;;
74650;SDS011;63169;46.042;14.592;2024-02-26T01:20:18;6.95;;;2.53;;
74650;SDS011;63169;46.042;14.592;2024-02-26T01:22:44;5.70;;;2.40;;
74650;SDS011;63169;46.042;14.592;2024-02-26T01:25:09;3.67;;;1.75;;
74650;SDS011;63169;46.042;14.592;2024-02-26T01:27:36;7.18;;;1.85;;
74650;SDS011;63169;46.042;14.592;2024-02-26T01:30:04;3.67;;;2.03;;
74650;SDS011;63169;46.042;14.592;2024-02-26T01:32:31;5.70;;;2.65;;
74650;SDS011;63169;46.042;14.592;2024-02-26T01:34:56;3.20;;;1.40;;
74650;SDS011;63169;46.042;14.592;2024-02-26T01:37:22;2.70;;;1.75;;
74650;SDS011;63169;46.042;14.592;2024-02-26T01:39:47;5.43;;;2.33;;
74650;SDS011;63169;46.042;14.592;2024-02-26T01:42:13;8.93;;;2.55;;
74650;SDS011;63169;46.042;14.592;2024-02-26T01:44:38;5.90;;;1.90;;
74650;SDS011;63169;46.042;14.592;2024-02-26T01:47:04;6.72;;;1.38;;
74650;SDS011;63169;46.042;14.592;2024-02-26T01:49:30;6.40;;;2.45;;
74650;SDS011;63169;46.042;14.592;2024-02-26T01:51:56;4.03;;;2.13;;
74650;SDS011;63169;46.042;14.592;2024-02-26T01:54:22;3.53;;;1.52;;
74650;SDS011;63169;46.042;14.592;2024-02-26T01:56:48;2.88;;;1.73;;
74650;SDS011;63169;46.042;14.592;2024-02-26T01:59:14;5.32;;;1.23;;
74650;SDS011;63169;46.042;14.592;2024-02-26T02:01:39;5.05;;;2.28;;
74650;SDS011;63169;46.042;14.592;2024-02-26T02:04:08;3.10;;;1.77;;
74650;SDS011;63169;46.042;14.592;2024-02-26T02:06:34;5.70;;;3.05;;
74650;SDS011;63169;46.042;14.592;2024-02-26T02:09:01;4.28;;;1.73;;
74650;SDS011;63169;46.042;14.592;2024-02-26T02:11:31;6.68;;;2.92;;
74650;SDS011;63169;46.042;14.592;2024-02-26T02:14:00;5.15;;;2.58;;
74650;SDS011;63169;46.042;14.592;2024-02-26T02:16:25;5.82;;;2.72;;
74650;SDS011;63169;46.042;14.592;2024-02-26T02:18:51;5.82;;;3.63;;
74650;SDS011;63169;46.042;14.592;2024-02-26T02:21:16;6.55;;;3.00;;
74650;SDS011;63169;46.042;14.592;2024-02-26T02:23:42;8.65;;;2.83;;
74650;SDS011;63169;46.042;14.592;2024-02-26T02:26:11;5.65;;;2.90;;
74650;SDS011;63169;46.042;14.592;2024-02-26T02:28:37;5.88;;;4.25;;
74650;SDS011;63169;46.042;14.592;2024-02-26T02:31:04;5.50;;;2.63;;
74650;SDS011;63169;46.042;14.592;2024-02-26T02:33:29;6.78;;;2.70;;
74650;SDS011;63169;46.042;14.592;2024-02-26T02:35:55;4.40;;;2.17;;
74650;SDS011;63169;46.042;14.592;2024-02-26T02:38:20;7.10;;;2.35;;
74650;SDS011;63169;46.042;14.592;2024-02-26T02:40:46;5.30;;;2.58;;
74650;SDS011;63169;46.042;14.592;2024-02-26T02:43:11;5.82;;;3.40;;
74650;SDS011;63169;46.042;14.592;2024-02-26T02:45:37;6.97;;;3.85;;
74650;SDS011;63169;46.042;14.592;2024-02-26T02:48:02;6.38;;;3.17;;
74650;SDS011;63169;46.042;14.592;2024-02-26T02:50:28;9.60;;;3.45;;
74650;SDS011;63169;46.042;14.592;2024-02-26T02:52:54;7.63;;;3.35;;
74650;SDS011;63169;46.042;14.592;2024-02-26T02:55:19;6.05;;;2.65;;
74650;SDS011;63169;46.042;14.592;2024-02-26T02:57:45;9.75;;;4.55;;
74650;SDS011;63169;46.042;14.592;2024-02-26T03:00:10;7.03;;;3.40;;
74650;SDS011;63169;46.042;14.592;2024-02-26T03:02:37;4.85;;;2.25;;
74650;SDS011;63169;46.042;14.592;2024-02-26T03:05:05;5.20;;;3.83;;
74650;SDS011;63169;46.042;14.592;2024-02-26T03:07:31;6.78;;;2.92;;
74650;SDS011;63169;46.042;14.592;2024-02-26T03:09:57;7.97;;;4.13;;
74650;SDS011;63169;46.042;14.592;2024-02-26T03:14:49;4.97;;;2.72;;
74650;SDS011;63169;46.042;14.592;2024-02-26T03:17:15;7.00;;;3.20;;
74650;SDS011;63169;46.042;14.592;2024-02-26T03:19:46;8.80;;;2.90;;
74650;SDS011;63169;46.042;14.592;2024-02-26T03:22:12;4.15;;;2.50;;
74650;SDS011;63169;46.042;14.592;2024-02-26T03:24:38;5.40;;;3.63;;
74650;SDS011;63169;46.042;14.592;2024-02-26T03:27:04;8.10;;;4.32;;
74650;SDS011;63169;46.042;14.592;2024-02-26T03:29:34;5.28;;;3.25;;
74650;SDS011;63169;46.042;14.592;2024-02-26T03:32:03;5.35;;;3.10;;
74650;SDS011;63169;46.042;14.592;2024-02-26T03:34:28;5.88;;;1.65;;
74650;SDS011;63169;46.042;14.592;2024-02-26T03:36:55;4.82;;;1.98;;
74650;SDS011;63169;46.042;14.592;2024-02-26T03:39:21;5.05;;;2.22;;
74650;SDS011;63169;46.042;14.592;2024-02-26T03:41:47;5.07;;;2.42;;
74650;SDS011;63169;46.042;14.592;2024-02-26T03:44:13;6.47;;;2.75;;
74650;SDS011;63169;46.042;14.592;2024-02-26T03:46:38;5.75;;;2.67;;
74650;SDS011;63169;46.042;14.592;2024-02-26T03:49:03;6.22;;;2.80;;
74650;SDS011;63169;46.042;14.592;2024-02-26T03:51:29;5.63;;;2.58;;
74650;SDS011;63169;46.042;14.592;2024-02-26T03:53:57;4.15;;;1.77;;
74650;SDS011;63169;46.042;14.592;2024-02-26T03:56:23;5.15;;;2.15;;
74650;SDS011;63169;46.042;14.592;2024-02-26T03:58:49;3.72;;;1.55;;
74650;SDS011;63169;46.042;14.592;2024-02-26T04:01:14;4.57;;;2.03;;
74650;SDS011;63169;46.042;14.592;2024-02-26T04:03:40;5.93;;;3.15;;
74650;SDS011;63169;46.042;14.592;2024-02-26T04:06:08;4.20;;;2.63;;
74650;SDS011;63169;46.042;14.592;2024-02-26T04:08:34;4.00;;;2.25;;
74650;SDS011;63169;46.042;14.592;2024-02-26T04:11:00;4.00;;;1.63;;
74650;SDS011;63169;46.042;14.592;2024-02-26T04:13:25;4.63;;;2.30;;
74650;SDS011;63169;46.042;14.592;2024-02-26T04:15:51;5.07;;;2.80;;
74650;SDS011;63169;46.042;14.592;2024-02-26T04:18:16;4.97;;;2.45;;
74650;SDS011;63169;46.042;14.592;2024-02-26T04:20:42;4.25;;;1.90;;
74650;SDS011;63169;46.042;14.592;2024-02-26T04:23:07;4.55;;;1.42;;
74650;SDS011;63169;46.042;14.592;2024-02-26T04:25:33;2.67;;;1.98;;
74650;SDS011;63169;46.042;14.592;2024-02-26T04:27:58;4.45;;;2.05;;
74650;SDS011;63169;46.042;14.592;2024-02-26T04:30:23;14.65;;;7.00;;
74650;SDS011;63169;46.042;14.592;2024-02-26T04:32:49;15.18;;;8.30;;
74650;SDS011;63169;46.042;14.592;2024-02-26T04:35:14;8.07;;;2.50;;
74650;SDS011;63169;46.042;14.592;2024-02-26T04:37:40;6.55;;;2.63;;
74650;SDS011;63169;46.042;14.592;2024-02-26T04:40:05;9.23;;;4.00;;
74650;SDS011;63169;46.042;14.592;2024-02-26T04:42:32;4.38;;;1.75;;
74650;SDS011;63169;46.042;14.592;2024-02-26T04:44:58;5.63;;;2.70;;
74650;SDS011;63169;46.042;14.592;2024-02-26T04:47:23;4.05;;;2.50;;
74650;SDS011;63169;46.042;14.592;2024-02-26T04:49:49;2.63;;;1.17;;
74650;SDS011;63169;46.042;14.592;2024-02-26T04:52:15;3.95;;;2.13;;
74650;SDS011;63169;46.042;14.592;2024-02-26T04:54:40;2.67;;;1.52;;
74650;SDS011;63169;46.042;14.592;2024-02-26T04:57:06;6.20;;;1.85;;
74650;SDS011;63169;46.042;14.592;2024-02-26T04:59:31;3.88;;;2.05;;
74650;SDS011;63169;46.042;14.592;2024-02-26T05:01:57;4.32;;;1.23;;
74650;SDS011;63169;46.042;14.592;2024-02-26T05:04:22;3.55;;;2.13;;
74650;SDS011;63169;46.042;14.592;2024-02-26T05:06:47;5.38;;;3.10;;
74650;SDS011;63169;46.042;14.592;2024-02-26T05:09:13;4.47;;;2.30;;
74650;SDS011;63169;46.042;14.592;2024-02-26T05:11:38;4.45;;;2.60;;
74650;SDS011;63169;46.042;14.592;2024-02-26T05:14:04;5.10;;;2.30;;
74650;SDS011;63169;46.042;14.592;2024-02-26T05:16:29;3.97;;;1.60;;
74650;SDS011;63169;46.042;14.592;2024-02-26T05:18:56;3.17;;;1.85;;
74650;SDS011;63169;46.042;14.592;2024-02-26T05:21:22;4.60;;;2.40;;
74650;SDS011;63169;46.042;14.592;2024-02-26T05:23:47;4.28;;;1.92;;
74650;SDS011;63169;46.042;14.592;2024-02-26T05:26:19;3.42;;;1.55;;
74650;SDS011;63169;46.042;14.592;2024-02-26T05:28:47;4.50;;;2.47;;
74650;SDS011;63169;46.042;14.592;2024-02-26T05:31:13;5.45;;;2.08;;
74650;SDS011;63169;46.042;14.592;2024-02-26T05:33:39;4.70;;;2.05;;
74650;SDS011;63169;46.042;14.592;2024-02-26T05:36:04;4.28;;;2.42;;
74650;SDS011;63169;46.042;14.592;2024-02-26T05:38:30;5.47;;;2.25;;
74650;SDS011;63169;46.042;14.592;2024-02-26T05:40:57;4.95;;;1.95;;
74650;SDS011;63169;46.042;14.592;2024-02-26T05:43:24;7.10;;;2.50;;
74650;SDS011;63169;46.042;14.592;2024-02-26T05:45:52;6.30;;;2.10;;
74650;SDS011;63169;46.042;14.592;2024-02-26T05:48:18;8.50;;;5.40;;
74650;SDS011;63169;46.042;14.592;2024-02-26T05:50:44;6.00;;;2.97;;
74650;SDS011;63169;46.042;14.592;2024-02-26T05:53:10;2.83;;;1.45;;
74650;SDS011;63169;46.042;14.592;2024-02-26T05:55:36;3.85;;;1.80;;
74650;SDS011;63169;46.042;14.592;2024-02-26T05:58:02;3.53;;;2.08;;
74650;SDS011;63169;46.042;14.592;2024-02-26T06:00:27;3.22;;;1.05;;
74650;SDS011;63169;46.042;14.592;2024-02-26T06:02:53;5.82;;;2.63;;
74650;SDS011;63169;46.042;14.592;2024-02-26T06:05:18;4.50;;;2.38;;
74650;SDS011;63169;46.042;14.592;2024-02-26T06:07:44;4.53;;;1.55;;
74650;SDS011;63169;46.042;14.592;2024-02-26T06:10:09;3.38;;;1.95;;
74650;SDS011;63169;46.042;14.592;2024-02-26T06:12:35;6.03;;;2.17;;
74650;SDS011;63169;46.042;14.592;2024-02-26T06:15:01;3.42;;;2.08;;
74650;SDS011;63169;46.042;14.592;2024-02-26T06:17:27;5.32;;;2.17;;
74650;SDS011;63169;46.042;14.592;2024-02-26T06:19:53;6.55;;;2.20;;
74650;SDS011;63169;46.042;14.592;2024-02-26T06:22:19;4.32;;;1.88;;
74650;SDS011;63169;46.042;14.592;2024-02-26T06:24:44;3.63;;;2.03;;
74650;SDS011;63169;46.042;14.592;2024-02-26T06:27:10;5.45;;;2.33;;
74650;SDS011;63169;46.042;14.592;2024-02-26T06:29:35;5.20;;;1.60;;
74650;SDS011;63169;46.042;14.592;2024-02-26T06:32:00;4.82;;;2.95;;
74650;SDS011;63169;46.042;14.592;2024-02-26T06:34:26;4.55;;;1.38;;
74650;SDS011;63169;46.042;14.592;2024-02-26T06:36:51;4.88;;;2.42;;
74650;SDS011;63169;46.042;14.592;2024-02-26T06:39:17;4.88;;;3.40;;
74650;SDS011;63169;46.042;14.592;2024-02-26T06:41:43;4.82;;;2.15;;
74650;SDS011;63169;46.042;14.592;2024-02-26T06:44:08;4.45;;;2.13;;
74650;SDS011;63169;46.042;14.592;2024-02-26T06:46:34;6.50;;;3.15;;
74650;SDS011;63169;46.042;14.592;2024-02-26T06:48:59;7.10;;;2.75;;
74650;SDS011;63169;46.042;14.592;2024-02-26T06:51:25;5.50;;;3.40;;
74650;SDS011;63169;46.042;14.592;2024-02-26T06:53:50;7.47;;;3.78;;
74650;SDS011;63169;46.042;14.592;2024-02-26T06:56:16;4.63;;;1.80;;
74650;SDS011;63169;46.042;14.592;2024-02-26T06:58:41;8.27;;;2.97;;
74650;SDS011;63169;46.042;14.592;2024-02-26T07:01:07;6.20;;;2.67;;
74650;SDS011;63169;46.042;14.592;2024-02-26T07:03:33;5.30;;;2.53;;
74650;SDS011;63169;46.042;14.592;2024-02-26T07:05:59;4.88;;;2.75;;
74650;SDS011;63169;46.042;14.592;2024-02-26T07:08:24;5.97;;;3.38;;
74650;SDS011;63169;46.042;14.592;2024-02-26T07:10:50;5.10;;;2.53;;
74650;SDS011;63169;46.042;14.592;2024-02-26T07:13:15;8.52;;;2.55;;
74650;SDS011;63169;46.042;14.592;2024-02-26T07:15:41;4.85;;;3.33;;
74650;SDS011;63169;46.042;14.592;2024-02-26T07:18:06;5.32;;;2.33;;
74650;SDS011;63169;46.042;14.592;2024-02-26T07:20:32;6.07;;;3.25;;
74650;SDS011;63169;46.042;14.592;2024-02-26T07:22:58;6.95;;;3.08;;
74650;SDS011;63169;46.042;14.592;2024-02-26T07:25:23;7.85;;;3.05;;
74650;SDS011;63169;46.042;14.592;2024-02-26T07:27:49;8.20;;;2.92;;
74650;SDS011;63169;46.042;14.592;2024-02-26T07:30:15;9.80;;;3.50;;
74650;SDS011;63169;46.042;14.592;2024-02-26T07:32:41;7.45;;;2.40;;
74650;SDS011;63169;46.042;14.592;2024-02-26T07:35:07;5.97;;;3.58;;
74650;SDS011;63169;46.042;14.592;2024-02-26T07:37:33;9.23;;;3.25;;
74650;SDS011;63169;46.042;14.592;2024-02-26T07:39:58;8.75;;;3.90;;
74650;SDS011;63169;46.042;14.592;2024-02-26T07:42:24;5.85;;;2.90;;
74650;SDS011;63169;46.042;14.592;2024-02-26T07:44:50;8.43;;;5.07;;
74650;SDS011;63169;46.042;14.592;2024-02-26T07:47:16;7.55;;;3.22;;
74650;SDS011;63169;46.042;14.592;2024-02-26T07:49:41;10.50;;;3.85;;
74650;SDS011;63169;46.042;14.592;2024-02-26T07:52:06;6.28;;;3.03;;
74650;SDS011;63169;46.042;14.592;2024-02-26T07:54:32;9.70;;;4.13;;
74650;SDS011;63169;46.042;14.592;2024-02-26T07:56:57;6.63;;;3.03;;
74650;SDS011;63169;46.042;14.592;2024-02-26T07:59:23;7.38;;;4.20;;
74650;SDS011;63169;46.042;14.592;2024-02-26T08:01:50;8.98;;;3.92;;
74650;SDS011;63169;46.042;14.592;2024-02-26T08:04:16;7.78;;;3.38;;
74650;SDS011;63169;46.042;14.592;2024-02-26T08:06:41;8.13;;;4.32;;
74650;SDS011;63169;46.042;14.592;2024-02-26T08:09:08;14.30;;;6.13;;
74650;SDS011;63169;46.042;14.592;2024-02-26T08:14:25;9.00;;;4.32;;
74650;SDS011;63169;46.042;14.592;2024-02-26T08:16:51;11.85;;;5.55;;
74650;SDS011;63169;46.042;14.592;2024-02-26T08:19:16;8.35;;;4.93;;
74650;SDS011;63169;46.042;14.592;2024-02-26T08:21:42;10.98;;;5.10;;
74650;SDS011;63169;46.042;14.592;2024-02-26T08:24:08;12.38;;;5.88;;
74650;SDS011;63169;46.042;14.592;2024-02-26T08:26:33;10.88;;;3.97;;
74650;SDS011;63169;46.042;14.592;2024-02-26T08:28:59;14.10;;;5.00;;
74650;SDS011;63169;46.042;14.592;2024-02-26T08:31:24;12.43;;;5.47;;
74650;SDS011;63169;46.042;14.592;2024-02-26T08:33:50;16.95;;;5.90;;
74650;SDS011;63169;46.042;14.592;2024-02-26T08:36:15;10.73;;;5.18;;
74650;SDS011;63169;46.042;14.592;2024-02-26T08:38:41;14.50;;;6.15;;
74650;SDS011;63169;46.042;14.592;2024-02-26T08:41:06;11.55;;;6.57;;
74650;SDS011;63169;46.042;14.592;2024-02-26T08:43:31;17.70;;;7.00;;
74650;SDS011;63169;46.042;14.592;2024-02-26T08:45:57;10.48;;;5.38;;
74650;SDS011;63169;46.042;14.592;2024-02-26T08:48:23;14.10;;;5.75;;
74650;SDS011;63169;46.042;14.592;2024-02-26T08:50:49;11.88;;;5.72;;
74650;SDS011;63169;46.042;14.592;2024-02-26T08:53:14;12.27;;;5.70;;
74650;SDS011;63169;46.042;14.592;2024-02-26T08:55:39;13.63;;;6.75;;
74650;SDS011;63169;46.042;14.592;2024-02-26T08:58:05;11.77;;;5.90;;
74650;SDS011;63169;46.042;14.592;2024-02-26T09:00:30;13.90;;;7.60;;
74650;SDS011;63169;46.042;14.592;2024-02-26T09:02:56;16.25;;;7.53;;
74650;SDS011;63169;46.042;14.592;2024-02-26T09:05:21;17.23;;;7.45;;
74650;SDS011;63169;46.042;14.592;2024-02-26T09:07:47;19.30;;;7.60;;
74650;SDS011;63169;46.042;14.592;2024-02-26T09:10:12;13.88;;;5.65;;
74650;SDS011;63169;46.042;14.592;2024-02-26T09:12:38;14.38;;;6.57;;
74650;SDS011;63169;46.042;14.592;2024-02-26T09:15:05;18.38;;;7.72;;
74650;SDS011;63169;46.042;14.592;2024-02-26T09:17:31;13.98;;;6.85;;
74650;SDS011;63169;46.042;14.592;2024-02-26T09:19:57;20.30;;;8.38;;
74650;SDS011;63169;46.042;14.592;2024-02-26T09:22:22;19.33;;;7.10;;
74650;SDS011;63169;46.042;14.592;2024-02-26T09:24:48;30.85;;;12.38;;
74650;SDS011;63169;46.042;14.592;2024-02-26T09:27:15;46.00;;;22.70;;
74650;SDS011;63169;46.042;14.592;2024-02-26T09:29:41;20.27;;;8.90;;
74650;SDS011;63169;46.042;14.592;2024-02-26T09:32:07;20.13;;;8.02;;
74650;SDS011;63169;46.042;14.592;2024-02-26T09:34:32;19.70;;;7.65;;
74650;SDS011;63169;46.042;14.592;2024-02-26T09:36:58;21.48;;;8.05;;
74650;SDS011;63169;46.042;14.592;2024-02-26T09:39:24;22.45;;;9.38;;
74650;SDS011;63169;46.042;14.592;2024-02-26T09:41:50;21.58;;;9.63;;
74650;SDS011;63169;46.042;14.592;2024-02-26T09:44:18;22.50;;;9.35;;
74650;SDS011;63169;46.042;14.592;2024-02-26T09:46:45;23.08;;;9.45;;
74650;SDS011;63169;46.042;14.592;2024-02-26T09:49:15;21.75;;;8.68;;
74650;SDS011;63169;46.042;14.592;2024-02-26T09:51:40;24.75;;;10.73;;
74650;SDS011;63169;46.042;14.592;2024-02-26T09:54:07;22.50;;;11.48;;
74650;SDS011;63169;46.042;14.592;2024-02-26T09:56:32;26.60;;;10.68;;
74650;SDS011;63169;46.042;14.592;2024-02-26T09:58:58;21.85;;;8.65;;
74650;SDS011;63169;46.042;14.592;2024-02-26T10:01:25;22.90;;;9.88;;
74650;SDS011;63169;46.042;14.592;2024-02-26T10:03:52;28.70;;;11.50;;
74650;SDS011;63169;46.042;14.592;2024-02-26T10:06:20;29.23;;;13.45;;
74650;SDS011;63169;46.042;14.592;2024-02-26T10:08:46;25.90;;;11.32;;
74650;SDS011;63169;46.042;14.592;2024-02-26T10:11:12;31.67;;;11.80;;
74650;SDS011;63169;46.042;14.592;2024-02-26T10:13:38;26.55;;;11.25;;
74650;SDS011;63169;46.042;14.592;2024-02-26T10:16:04;25.08;;;11.75;;
74650;SDS011;63169;46.042;14.592;2024-02-26T10:18:47;26.63;;;12.25;;
74650;SDS011;63169;46.042;14.592;2024-02-26T10:21:17;32.33;;;13.05;;
74650;SDS011;63169;46.042;14.592;2024-02-26T10:23:43;26.73;;;11.90;;
74650;SDS011;63169;46.042;14.592;2024-02-26T10:26:10;26.45;;;11.15;;
74650;SDS011;63169;46.042;14.592;2024-02-26T10:28:37;28.38;;;10.95;;
74650;SDS011;63169;46.042;14.592;2024-02-26T10:31:03;32.10;;;12.88;;
74650;SDS011;63169;46.042;14.592;2024-02-26T10:33:28;35.50;;;12.25;;
74650;SDS011;63169;46.042;14.592;2024-02-26T10:35:54;32.25;;;12.55;;
74650;SDS011;63169;46.042;14.592;2024-02-26T10:38:19;27.95;;;11.77;;
74650;SDS011;63169;46.042;14.592;2024-02-26T10:40:46;27.30;;;11.52;;
74650;SDS011;63169;46.042;14.592;2024-02-26T10:43:11;28.35;;;12.55;;
74650;SDS011;63169;46.042;14.592;2024-02-26T10:45:39;31.95;;;10.35;;
74650;SDS011;63169;46.042;14.592;2024-02-26T10:48:12;35.00;;;11.65;;
74650;SDS011;63169;46.042;14.592;2024-02-26T10:50:39;30.30;;;9.30;;
74650;SDS011;63169;46.042;14.592;2024-02-26T10:53:05;22.38;;;9.77;;
74650;SDS011;63169;46.042;14.592;2024-02-26T10:55:47;24.67;;;9.10;;
74650;SDS011;63169;46.042;14.592;2024-02-26T10:58:14;25.40;;;9.27;;
74650;SDS011;63169;46.042;14.592;2024-02-26T11:00:41;18.30;;;8.10;;
74650;SDS011;63169;46.042;14.592;2024-02-26T11:03:08;36.35;;;18.13;;
74650;SDS011;63169;46.042;14.592;2024-02-26T11:05:35;31.35;;;13.85;;
74650;SDS011;63169;46.042;14.592;2024-02-26T11:08:00;19.35;;;8.77;;
74650;SDS011;63169;46.042;14.592;2024-02-26T11:10:27;20.63;;;10.32;;
74650;SDS011;63169;46.042;14.592;2024-02-26T11:12:55;25.20;;;11.18;;
74650;SDS011;63169;46.042;14.592;2024-02-26T11:15:21;20.67;;;9.40;;
74650;SDS011;63169;46.042;14.592;2024-02-26T11:17:46;15.85;;;9.10;;
74650;SDS011;63169;46.042;14.592;2024-02-26T11:20:13;27.23;;;10.02;;
74650;SDS011;63169;46.042;14.592;2024-02-26T11:22:39;20.25;;;8.95;;
74650;SDS011;63169;46.042;14.592;2024-02-26T11:25:04;27.75;;;11.10;;
74650;SDS011;63169;46.042;14.592;2024-02-26T11:27:32;20.92;;;9.30;;
74650;SDS011;63169;46.042;14.592;2024-02-26T11:30:00;26.80;;;9.98;;
74650;SDS011;63169;46.042;14.592;2024-02-26T11:32:27;19.10;;;9.45;;
74650;SDS011;63169;46.042;14.592;2024-02-26T11:34:55;29.10;;;10.35;;
74650;SDS011;63169;46.042;14.592;2024-02-26T11:37:21;23.13;;;10.65;;
74650;SDS011;63169;46.042;14.592;2024-02-26T11:39:46;21.77;;;9.57;;
74650;SDS011;63169;46.042;14.592;2024-02-26T11:42:15;19.05;;;10.32;;
74650;SDS011;63169;46.042;14.592;2024-02-26T11:44:41;22.45;;;9.60;;
74650;SDS011;63169;46.042;14.592;2024-02-26T11:47:13;23.95;;;9.68;;
74650;SDS011;63169;46.042;14.592;2024-02-26T11:49:43;17.80;;;8.75;;
74650;SDS011;63169;46.042;14.592;2024-02-26T11:52:09;20.40;;;8.68;;
74650;SDS011;63169;46.042;14.592;2024-02-26T11:57:03;17.27;;;8.48;;
74650;SDS011;63169;46.042;14.592;2024-02-26T11:59:38;19.48;;;9.05;;
74650;SDS011;63169;46.042;14.592;2024-02-26T12:02:05;15.77;;;7.88;;
74650;SDS011;63169;46.042;14.592;2024-02-26T12:04:32;18.55;;;9.35;;
74650;SDS011;63169;46.042;14.592;2024-02-26T12:06:58;20.00;;;9.07;;
74650;SDS011;63169;46.042;14.592;2024-02-26T12:12:02;18.83;;;7.55;;
74650;SDS011;63169;46.042;14.592;2024-02-26T12:14:29;17.52;;;9.02;;
74650;SDS011;63169;46.042;14.592;2024-02-26T12:16:55;17.25;;;7.25;;
74650;SDS011;63169;46.042;14.592;2024-02-26T12:19:21;19.13;;;8.07;;
74650;SDS011;63169;46.042;14.592;2024-02-26T12:21:48;12.82;;;7.43;;
74650;SDS011;63169;46.042;14.592;2024-02-26T12:24:16;19.67;;;8.40;;
74650;SDS011;63169;46.042;14.592;2024-02-26T12:26:43;18.05;;;8.60;;
74650;SDS011;63169;46.042;14.592;2024-02-26T12:29:09;16.35;;;7.82;;
74650;SDS011;63169;46.042;14.592;2024-02-26T12:31:36;13.25;;;6.53;;
74650;SDS011;63169;46.042;14.592;2024-02-26T12:34:02;18.63;;;8.45;;
74650;SDS011;63169;46.042;14.592;2024-02-26T12:36:28;13.65;;;6.10;;
74650;SDS011;63169;46.042;14.592;2024-02-26T12:38:54;15.52;;;7.70;;
74650;SDS011;63169;46.042;14.592;2024-02-26T12:41:20;17.95;;;7.00;;
74650;SDS011;63169;46.042;14.592;2024-02-26T12:43:46;17.10;;;6.43;;
74650;SDS011;63169;46.042;14.592;2024-02-26T12:46:11;15.63;;;6.95;;
74650;SDS011;63169;46.042;14.592;2024-02-26T12:48:38;13.82;;;6.13;;
74650;SDS011;63169;46.042;14.592;2024-02-26T12:51:04;13.68;;;6.35;;
74650;SDS011;63169;46.042;14.592;2024-02-26T12:53:30;14.02;;;6.32;;
74650;SDS011;63169;46.042;14.592;2024-02-26T12:55:56;12.40;;;6.15;;
74650;SDS011;63169;46.042;14.592;2024-02-26T12:58:23;13.95;;;6.65;;
74650;SDS011;63169;46.042;14.592;2024-02-26T13:00:53;15.15;;;6.65;;
74650;SDS011;63169;46.042;14.592;2024-02-26T13:03:19;14.35;;;7.00;;
74650;SDS011;63169;46.042;14.592;2024-02-26T13:05:46;16.02;;;7.03;;
74650;SDS011;63169;46.042;14.592;2024-02-26T13:08:18;14.32;;;6.30;;
74650;SDS011;63169;46.042;14.592;2024-02-26T13:10:45;13.07;;;7.55;;
74650;SDS011;63169;46.042;14.592;2024-02-26T13:13:11;12.95;;;6.00;;
74650;SDS011;63169;46.042;14.592;2024-02-26T13:15:40;13.52;;;6.65;;
74650;SDS011;63169;46.042;14.592;2024-02-26T13:18:08;13.45;;;5.88;;
74650;SDS011;63169;46.042;14.592;2024-02-26T13:20:35;14.85;;;6.88;;
74650;SDS011;63169;46.042;14.592;2024-02-26T13:23:04;9.85;;;6.60;;
74650;SDS011;63169;46.042;14.592;2024-02-26T13:25:30;16.00;;;7.70;;
74650;SDS011;63169;46.042;14.592;2024-02-26T13:28:09;15.40;;;8.95;;
74650;SDS011;63169;46.042;14.592;2024-02-26T13:30:39;13.32;;;6.28;;
74650;SDS011;63169;46.042;14.592;2024-02-26T13:33:08;17.00;;;7.63;;
74650;SDS011;63169;46.042;14.592;2024-02-26T13:35:34;12.88;;;6.63;;
74650;SDS011;63169;46.042;14.592;2024-02-26T13:38:00;15.02;;;7.70;;
74650;SDS011;63169;46.042;14.592;2024-02-26T13:40:25;13.65;;;7.13;;
74650;SDS011;63169;46.042;14.592;2024-02-26T13:42:51;9.90;;;6.00;;
74650;SDS011;63169;46.042;14.592;2024-02-26T13:47:43;9.70;;;5.07;;
74650;SDS011;63169;46.042;14.592;2024-02-26T13:50:09;9.18;;;4.53;;
74650;SDS011;63169;46.042;14.592;2024-02-26T13:52:35;9.40;;;4.93;;
74650;SDS011;63169;46.042;14.592;2024-02-26T13:55:00;10.13;;;5.82;;
74650;SDS011;63169;46.042;14.592;2024-02-26T13:59:52;8.20;;;5.13;;
74650;SDS011;63169;46.042;14.592;2024-02-26T14:02:18;11.65;;;5.20;;
74650;SDS011;63169;46.042;14.592;2024-02-26T14:04:43;10.60;;;4.53;;
74650;SDS011;63169;46.042;14.592;2024-02-26T14:07:09;8.95;;;3.17;;
74650;SDS011;63169;46.042;14.592;2024-02-26T14:09:36;6.88;;;3.53;;
74650;SDS011;63169;46.042;14.592;2024-02-26T14:12:01;7.35;;;2.80;;
74650;SDS011;63169;46.042;14.592;2024-02-26T14:14:27;7.65;;;4.28;;
74650;SDS011;63169;46.042;14.592;2024-02-26T14:16:53;7.93;;;2.60;;
74650;SDS011;63169;46.042;14.592;2024-02-26T14:19:18;7.05;;;3.67;;
74650;SDS011;63169;46.042;14.592;2024-02-26T14:21:43;8.07;;;2.58;;
74650;SDS011;63169;46.042;14.592;2024-02-26T14:24:09;5.18;;;2.60;;
74650;SDS011;63169;46.042;14.592;2024-02-26T14:26:34;8.23;;;2.38;;
74650;SDS011;63169;46.042;14.592;2024-02-26T14:29:00;5.50;;;2.55;;
74650;SDS011;63169;46.042;14.592;2024-02-26T14:31:25;5.20;;;2.80;;
74650;SDS011;63169;46.042;14.592;2024-02-26T14:33:51;5.63;;;1.80;;
74650;SDS011;63169;46.042;14.592;2024-02-26T14:36:20;5.10;;;2.58;;